BTK6275 WAMM-WIII
Flight info
| Callsign | BTK6275 |
|---|---|
| Flight time | 2h 53m |
| Altitude | 36000 |
| Route | GOTSA W15 EGUKO |
| Aircraft | A320/M-SDE3FGHIRWY/LB1 |
Departure
| Time | 2026-04-22 11:33 |
|---|---|
| Airport | Sam Ratulangi International Airport (WAMM) |
Arrival
| Time | 2026-04-22 14:26 |
|---|---|
| Airport | Soekarno-Hatta International Airport (WIII) |
| Time | Latitude | Longitude | Altitude | Speed | Heading |
|---|---|---|---|---|---|
| 2026-04-22 11:20 | 1.54194 | 124.92342 | 336 ft | 0 kts | 272° |
| 2026-04-22 11:26 | 1.54193 | 124.92349 | 336 ft | 2 kts | 271° |
| 2026-04-22 11:26 | 1.54194 | 124.92369 | 336 ft | 3 kts | 265° |
| 2026-04-22 11:26 | 1.54196 | 124.92389 | 335 ft | 3 kts | 253° |
| 2026-04-22 11:26 | 1.54204 | 124.92406 | 336 ft | 3 kts | 225° |
| 2026-04-22 11:27 | 1.54215 | 124.92414 | 331 ft | 1 kts | 183° |
| 2026-04-22 11:27 | 1.54217 | 124.92415 | 331 ft | 1 kts | 181° |
| 2026-04-22 11:31 | 1.54214 | 124.92415 | 331 ft | 3 kts | 181° |
| 2026-04-22 11:31 | 1.54140 | 124.92413 | 335 ft | 16 kts | 181° |
| 2026-04-22 11:31 | 1.54010 | 124.92410 | 336 ft | 19 kts | 171° |
| 2026-04-22 11:32 | 1.53866 | 124.92432 | 333 ft | 22 kts | 181° |
| 2026-04-22 11:32 | 1.53754 | 124.92463 | 335 ft | 15 kts | 116° |
| 2026-04-22 11:32 | 1.53748 | 124.92575 | 333 ft | 16 kts | 68° |
| 2026-04-22 11:32 | 1.53838 | 124.92591 | 335 ft | 14 kts | 4° |
| 2026-04-22 11:33 | 1.54044 | 124.92602 | 337 ft | 62 kts | 2° |
| 2026-04-22 11:33 | 1.54712 | 124.92626 | 334 ft | 127 kts | 2° |
| 2026-04-22 11:33 | 1.55769 | 124.92679 | 364 ft | 173 kts | 5° |
| 2026-04-22 11:33 | 1.57022 | 124.92788 | 880 ft | 187 kts | 6° |
| 2026-04-22 11:34 | 1.58306 | 124.92667 | 1637 ft | 185 kts | 351° |
| 2026-04-22 11:34 | 1.59552 | 124.92347 | 2291 ft | 188 kts | 347° |
| 2026-04-22 11:34 | 1.60868 | 124.91971 | 2515 ft | 208 kts | 347° |
| 2026-04-22 11:34 | 1.62341 | 124.91553 | 2750 ft | 232 kts | 347° |
| 2026-04-22 11:35 | 1.63979 | 124.91098 | 3101 ft | 256 kts | 347° |
| 2026-04-22 11:35 | 1.65744 | 124.90618 | 3685 ft | 267 kts | 347° |
| 2026-04-22 11:35 | 1.67473 | 124.89913 | 4424 ft | 275 kts | 326° |
| 2026-04-22 11:35 | 1.68827 | 124.88577 | 5163 ft | 280 kts | 313° |
| 2026-04-22 11:36 | 1.70131 | 124.87075 | 5903 ft | 285 kts | 312° |
| 2026-04-22 11:36 | 1.71437 | 124.85570 | 6632 ft | 288 kts | 312° |
| 2026-04-22 11:36 | 1.72761 | 124.84050 | 7331 ft | 292 kts | 312° |
| 2026-04-22 11:36 | 1.74084 | 124.82533 | 8021 ft | 295 kts | 313° |
| 2026-04-22 11:37 | 1.75441 | 124.80979 | 8730 ft | 298 kts | 313° |
| 2026-04-22 11:37 | 1.76814 | 124.79407 | 9409 ft | 302 kts | 313° |
| 2026-04-22 11:37 | 1.78204 | 124.77816 | 10056 ft | 305 kts | 313° |
| 2026-04-22 11:37 | 1.79620 | 124.76196 | 10482 ft | 318 kts | 312° |
| 2026-04-22 11:38 | 1.80932 | 124.74316 | 10606 ft | 342 kts | 298° |
| 2026-04-22 11:38 | 1.81779 | 124.72016 | 10732 ft | 364 kts | 282° |
| 2026-04-22 11:38 | 1.81851 | 124.66855 | 11658 ft | 377 kts | 267° |
| 2026-04-22 11:39 | 1.81728 | 124.64224 | 12216 ft | 381 kts | 268° |
| 2026-04-22 11:39 | 1.81607 | 124.61562 | 12768 ft | 385 kts | 268° |
| 2026-04-22 11:39 | 1.81488 | 124.58883 | 13317 ft | 388 kts | 268° |
| 2026-04-22 11:39 | 1.81371 | 124.56177 | 13867 ft | 391 kts | 268° |
| 2026-04-22 11:40 | 1.81254 | 124.53453 | 14370 ft | 393 kts | 268° |
| 2026-04-22 11:40 | 1.81134 | 124.50715 | 14846 ft | 396 kts | 268° |
| 2026-04-22 11:40 | 1.81013 | 124.47949 | 15321 ft | 399 kts | 268° |
| 2026-04-22 11:40 | 1.80888 | 124.45169 | 15786 ft | 402 kts | 268° |
| 2026-04-22 11:41 | 1.80761 | 124.42361 | 16252 ft | 405 kts | 268° |
| 2026-04-22 11:41 | 1.80637 | 124.39544 | 16719 ft | 408 kts | 268° |
| 2026-04-22 11:41 | 1.80513 | 124.36703 | 17164 ft | 411 kts | 268° |
| 2026-04-22 11:41 | 1.80385 | 124.33843 | 17608 ft | 413 kts | 268° |
| 2026-04-22 11:42 | 1.80253 | 124.30962 | 18044 ft | 416 kts | 268° |
| 2026-04-22 11:42 | 1.80096 | 124.28067 | 18428 ft | 419 kts | 264° |
| 2026-04-22 11:42 | 1.79507 | 124.25205 | 18772 ft | 422 kts | 252° |
| 2026-04-22 11:42 | 1.78333 | 124.22511 | 19123 ft | 424 kts | 239° |
| 2026-04-22 11:43 | 1.76616 | 124.20119 | 19472 ft | 425 kts | 226° |
| 2026-04-22 11:43 | 1.74430 | 124.18128 | 19828 ft | 426 kts | 214° |
| 2026-04-22 11:43 | 1.71901 | 124.16585 | 20175 ft | 427 kts | 207° |
| 2026-04-22 11:43 | 1.69314 | 124.15127 | 20533 ft | 429 kts | 207° |
| 2026-04-22 11:44 | 1.66708 | 124.13654 | 20882 ft | 431 kts | 207° |
| 2026-04-22 11:44 | 1.64095 | 124.12171 | 21209 ft | 433 kts | 207° |
| 2026-04-22 11:44 | 1.61469 | 124.10677 | 21549 ft | 436 kts | 207° |
| 2026-04-22 11:44 | 1.58831 | 124.09173 | 21883 ft | 438 kts | 207° |
| 2026-04-22 11:45 | 1.56174 | 124.07659 | 22204 ft | 440 kts | 207° |
| 2026-04-22 11:45 | 1.53509 | 124.06142 | 22527 ft | 442 kts | 207° |
| 2026-04-22 11:45 | 1.50830 | 124.04617 | 22849 ft | 445 kts | 207° |
| 2026-04-22 11:45 | 1.49047 | 124.03601 | 23069 ft | 446 kts | 207° |
| 2026-04-22 11:46 | 1.46341 | 124.02062 | 23369 ft | 448 kts | 207° |
| 2026-04-22 11:46 | 1.42703 | 123.99997 | 23730 ft | 451 kts | 207° |
| 2026-04-22 11:46 | 1.40897 | 123.98973 | 23895 ft | 452 kts | 207° |
| 2026-04-22 11:46 | 1.38159 | 123.97415 | 24170 ft | 453 kts | 207° |
| 2026-04-22 11:47 | 1.35416 | 123.95853 | 24429 ft | 455 kts | 207° |
| 2026-04-22 11:47 | 1.32667 | 123.94288 | 24690 ft | 456 kts | 207° |
| 2026-04-22 11:47 | 1.29903 | 123.92717 | 24956 ft | 457 kts | 207° |
| 2026-04-22 11:47 | 1.27138 | 123.91140 | 25210 ft | 458 kts | 207° |
| 2026-04-22 11:48 | 1.24466 | 123.89390 | 25447 ft | 462 kts | 217° |
| 2026-04-22 11:48 | 1.22123 | 123.87172 | 25685 ft | 466 kts | 228° |
| 2026-04-22 11:48 | 1.20215 | 123.84550 | 25928 ft | 469 kts | 239° |
| 2026-04-22 11:48 | 1.18809 | 123.81609 | 26172 ft | 471 kts | 249° |
| 2026-04-22 11:49 | 1.17919 | 123.78450 | 26407 ft | 473 kts | 256° |
| 2026-04-22 11:49 | 1.17168 | 123.75243 | 26654 ft | 475 kts | 256° |
| 2026-04-22 11:49 | 1.16418 | 123.72024 | 26901 ft | 476 kts | 256° |
| 2026-04-22 11:49 | 1.15664 | 123.68797 | 27142 ft | 477 kts | 256° |
| 2026-04-22 11:50 | 1.14907 | 123.65564 | 27365 ft | 479 kts | 256° |
| 2026-04-22 11:50 | 1.14149 | 123.62326 | 27610 ft | 480 kts | 255° |
| 2026-04-22 11:50 | 1.13109 | 123.59155 | 27829 ft | 480 kts | 246° |
| 2026-04-22 11:50 | 1.11603 | 123.56183 | 28041 ft | 480 kts | 237° |
| 2026-04-22 11:51 | 1.09669 | 123.53467 | 28252 ft | 480 kts | 230° |
| 2026-04-22 11:51 | 1.07591 | 123.50849 | 28459 ft | 482 kts | 230° |
| 2026-04-22 11:51 | 1.05506 | 123.48224 | 28668 ft | 483 kts | 230° |
| 2026-04-22 11:51 | 1.03419 | 123.45592 | 28875 ft | 484 kts | 231° |
| 2026-04-22 11:52 | 1.01357 | 123.42987 | 29089 ft | 485 kts | 231° |
| 2026-04-22 11:52 | 0.99260 | 123.40338 | 29292 ft | 486 kts | 231° |
| 2026-04-22 11:52 | 0.97163 | 123.37681 | 29515 ft | 487 kts | 231° |
| 2026-04-22 11:52 | 0.95226 | 123.34911 | 29816 ft | 487 kts | 239° |
| 2026-04-22 11:53 | 0.93720 | 123.31840 | 30083 ft | 486 kts | 248° |
| 2026-04-22 11:53 | 0.92719 | 123.28616 | 30324 ft | 486 kts | 256° |
| 2026-04-22 11:53 | 0.91958 | 123.25377 | 30559 ft | 485 kts | 256° |
| 2026-04-22 11:53 | 0.91183 | 123.22094 | 30811 ft | 484 kts | 256° |
| 2026-04-22 11:54 | 0.90407 | 123.18823 | 31063 ft | 484 kts | 256° |
| 2026-04-22 11:54 | 0.89629 | 123.15560 | 31313 ft | 483 kts | 256° |
| 2026-04-22 11:54 | 0.88850 | 123.12300 | 31572 ft | 482 kts | 256° |
| 2026-04-22 11:54 | 0.88072 | 123.09045 | 31829 ft | 481 kts | 256° |
| 2026-04-22 11:55 | 0.87296 | 123.05788 | 32090 ft | 481 kts | 256° |
| 2026-04-22 11:55 | 0.86526 | 123.02541 | 32352 ft | 480 kts | 256° |
| 2026-04-22 11:55 | 0.85755 | 122.99297 | 32611 ft | 479 kts | 256° |
| 2026-04-22 11:55 | 0.84984 | 122.96062 | 32878 ft | 478 kts | 256° |
| 2026-04-22 11:56 | 0.84215 | 122.92831 | 33144 ft | 477 kts | 256° |
| 2026-04-22 11:56 | 0.83449 | 122.89607 | 33411 ft | 477 kts | 256° |
| 2026-04-22 11:56 | 0.82684 | 122.86387 | 33696 ft | 475 kts | 256° |
| 2026-04-22 11:56 | 0.81925 | 122.83181 | 33973 ft | 474 kts | 256° |
| 2026-04-22 11:57 | 0.81166 | 122.79985 | 34220 ft | 473 kts | 256° |
| 2026-04-22 11:57 | 0.80404 | 122.76786 | 34450 ft | 472 kts | 256° |
| 2026-04-22 11:57 | 0.79644 | 122.73598 | 34669 ft | 472 kts | 256° |
| 2026-04-22 11:57 | 0.78883 | 122.70410 | 34882 ft | 471 kts | 256° |
| 2026-04-22 11:58 | 0.78124 | 122.67230 | 35085 ft | 471 kts | 256° |
| 2026-04-22 11:58 | 0.77366 | 122.64052 | 35287 ft | 471 kts | 256° |
| 2026-04-22 11:58 | 0.76611 | 122.60873 | 35477 ft | 470 kts | 256° |
| 2026-04-22 11:58 | 0.75857 | 122.57688 | 35667 ft | 470 kts | 256° |
| 2026-04-22 11:59 | 0.75103 | 122.54513 | 35836 ft | 470 kts | 256° |
| 2026-04-22 11:59 | 0.74346 | 122.51334 | 35891 ft | 470 kts | 256° |
| 2026-04-22 11:59 | 0.72833 | 122.44984 | 35896 ft | 470 kts | 256° |
| 2026-04-22 12:00 | 0.71327 | 122.38637 | 35902 ft | 470 kts | 256° |
| 2026-04-22 12:00 | 0.69820 | 122.32288 | 35899 ft | 470 kts | 256° |
| 2026-04-22 12:01 | 0.68306 | 122.25933 | 35905 ft | 470 kts | 256° |
| 2026-04-22 12:01 | 0.66792 | 122.19572 | 35905 ft | 470 kts | 256° |
| 2026-04-22 12:02 | 0.65284 | 122.13258 | 35908 ft | 471 kts | 256° |
| 2026-04-22 12:02 | 0.63770 | 122.06895 | 35895 ft | 471 kts | 256° |
| 2026-04-22 12:03 | 0.62254 | 122.00534 | 35904 ft | 471 kts | 256° |
| 2026-04-22 12:03 | 0.60743 | 121.94178 | 35907 ft | 471 kts | 256° |
| 2026-04-22 12:04 | 0.59229 | 121.87811 | 35912 ft | 470 kts | 256° |
| 2026-04-22 12:04 | 0.57712 | 121.81455 | 35914 ft | 470 kts | 256° |
| 2026-04-22 12:05 | 0.56202 | 121.75097 | 35910 ft | 470 kts | 256° |
| 2026-04-22 12:05 | 0.54681 | 121.68742 | 35911 ft | 470 kts | 256° |
| 2026-04-22 12:06 | 0.53161 | 121.62389 | 35916 ft | 470 kts | 256° |
| 2026-04-22 12:06 | 0.51649 | 121.56029 | 35896 ft | 470 kts | 256° |
| 2026-04-22 12:07 | 0.50138 | 121.49670 | 35902 ft | 470 kts | 256° |
| 2026-04-22 12:07 | 0.48630 | 121.43315 | 35901 ft | 470 kts | 256° |
| 2026-04-22 12:08 | 0.47117 | 121.36958 | 35911 ft | 470 kts | 256° |
| 2026-04-22 12:08 | 0.45597 | 121.30595 | 35908 ft | 471 kts | 256° |
| 2026-04-22 12:09 | 0.44081 | 121.24236 | 35914 ft | 471 kts | 256° |
| 2026-04-22 12:09 | 0.42570 | 121.17876 | 35914 ft | 470 kts | 256° |
| 2026-04-22 12:10 | 0.41068 | 121.11562 | 35914 ft | 470 kts | 256° |
| 2026-04-22 12:10 | 0.39540 | 121.05165 | 35904 ft | 470 kts | 256° |
| 2026-04-22 12:11 | 0.38037 | 120.98849 | 35894 ft | 470 kts | 256° |
| 2026-04-22 12:11 | 0.36525 | 120.92491 | 35895 ft | 470 kts | 256° |
| 2026-04-22 12:12 | 0.35011 | 120.86140 | 35897 ft | 470 kts | 256° |
| 2026-04-22 12:12 | 0.33496 | 120.79789 | 35898 ft | 470 kts | 256° |
| 2026-04-22 12:13 | 0.31984 | 120.73435 | 35891 ft | 470 kts | 256° |
| 2026-04-22 12:13 | 0.30473 | 120.67091 | 35894 ft | 470 kts | 256° |
| 2026-04-22 12:14 | 0.28954 | 120.60742 | 35899 ft | 470 kts | 256° |
| 2026-04-22 12:14 | 0.27437 | 120.54391 | 35906 ft | 470 kts | 256° |
| 2026-04-22 12:15 | 0.25932 | 120.48043 | 35891 ft | 470 kts | 256° |
| 2026-04-22 12:15 | 0.24421 | 120.41691 | 35890 ft | 470 kts | 256° |
| 2026-04-22 12:16 | 0.22903 | 120.35341 | 35906 ft | 470 kts | 256° |
| 2026-04-22 12:16 | 0.21388 | 120.28995 | 35905 ft | 470 kts | 256° |
| 2026-04-22 12:17 | 0.19876 | 120.22649 | 35905 ft | 469 kts | 256° |
| 2026-04-22 12:17 | 0.18361 | 120.16307 | 35903 ft | 469 kts | 256° |
| 2026-04-22 12:18 | 0.16853 | 120.09965 | 35911 ft | 469 kts | 256° |
| 2026-04-22 12:18 | 0.15350 | 120.03625 | 35908 ft | 469 kts | 256° |
| 2026-04-22 12:19 | 0.13839 | 119.97291 | 35911 ft | 468 kts | 256° |
| 2026-04-22 12:19 | 0.12340 | 119.91005 | 35910 ft | 468 kts | 256° |
| 2026-04-22 12:20 | 0.10833 | 119.84686 | 35915 ft | 468 kts | 256° |
| 2026-04-22 12:20 | 0.09323 | 119.78358 | 35906 ft | 468 kts | 256° |
| 2026-04-22 12:21 | 0.07816 | 119.72040 | 35906 ft | 467 kts | 256° |
| 2026-04-22 12:21 | 0.06309 | 119.65723 | 35902 ft | 467 kts | 256° |
| 2026-04-22 12:22 | 0.04809 | 119.59413 | 35892 ft | 467 kts | 256° |
| 2026-04-22 12:22 | 0.03307 | 119.53098 | 35900 ft | 467 kts | 255° |
| 2026-04-22 12:23 | 0.00843 | 119.47126 | 35893 ft | 466 kts | 243° |
| 2026-04-22 12:23 | -0.02044 | 119.41327 | 35887 ft | 466 kts | 243° |
| 2026-04-22 12:24 | -0.04926 | 119.35516 | 35881 ft | 467 kts | 243° |
| 2026-04-22 12:24 | -0.07806 | 119.29694 | 35884 ft | 468 kts | 243° |
| 2026-04-22 12:25 | -0.10690 | 119.23866 | 35891 ft | 468 kts | 243° |
| 2026-04-22 12:25 | -0.13567 | 119.18049 | 35897 ft | 467 kts | 242° |
| 2026-04-22 12:26 | -0.16451 | 119.12246 | 35904 ft | 466 kts | 243° |
| 2026-04-22 12:26 | -0.19328 | 119.06451 | 35906 ft | 465 kts | 242° |
| 2026-04-22 12:27 | -0.22198 | 119.00653 | 35905 ft | 465 kts | 243° |
| 2026-04-22 12:27 | -0.25067 | 118.94869 | 35903 ft | 465 kts | 242° |
| 2026-04-22 12:28 | -0.27920 | 118.89121 | 35905 ft | 464 kts | 242° |
| 2026-04-22 12:28 | -0.30782 | 118.83340 | 35911 ft | 464 kts | 242° |
| 2026-04-22 12:29 | -0.33642 | 118.77563 | 35901 ft | 464 kts | 243° |
| 2026-04-22 12:29 | -0.36507 | 118.71783 | 35896 ft | 464 kts | 243° |
| 2026-04-22 12:30 | -0.40813 | 118.63109 | 35895 ft | 465 kts | 243° |
| 2026-04-22 12:31 | -0.43683 | 118.57323 | 35895 ft | 465 kts | 243° |
| 2026-04-22 12:31 | -0.46554 | 118.51534 | 35896 ft | 465 kts | 243° |
| 2026-04-22 12:32 | -0.49424 | 118.45742 | 35893 ft | 465 kts | 243° |
| 2026-04-22 12:32 | -0.53723 | 118.37053 | 35894 ft | 465 kts | 242° |
| 2026-04-22 12:33 | -0.56595 | 118.31261 | 35895 ft | 465 kts | 243° |
| 2026-04-22 12:33 | -0.59465 | 118.25469 | 35896 ft | 465 kts | 243° |
| 2026-04-22 12:34 | -0.62337 | 118.19681 | 35896 ft | 465 kts | 243° |
| 2026-04-22 12:34 | -0.64724 | 118.14868 | 35900 ft | 465 kts | 243° |
| 2026-04-22 12:35 | -0.67596 | 118.09075 | 35894 ft | 465 kts | 243° |
| 2026-04-22 12:35 | -0.70462 | 118.03277 | 35885 ft | 466 kts | 243° |
| 2026-04-22 12:36 | -0.73336 | 117.97471 | 35884 ft | 467 kts | 243° |
| 2026-04-22 12:36 | -0.76213 | 117.91654 | 35886 ft | 467 kts | 242° |
| 2026-04-22 12:37 | -0.79098 | 117.85836 | 35886 ft | 467 kts | 243° |
| 2026-04-22 12:37 | -0.81986 | 117.80016 | 35885 ft | 467 kts | 243° |
| 2026-04-22 12:38 | -0.84868 | 117.74189 | 35882 ft | 468 kts | 243° |
| 2026-04-22 12:38 | -0.87732 | 117.68404 | 35882 ft | 468 kts | 243° |
| 2026-04-22 12:39 | -0.92057 | 117.59669 | 35888 ft | 468 kts | 243° |
| 2026-04-22 12:40 | -0.94950 | 117.53847 | 35887 ft | 468 kts | 243° |
| 2026-04-22 12:40 | -0.97841 | 117.48021 | 35881 ft | 468 kts | 243° |
| 2026-04-22 12:41 | -1.00727 | 117.42196 | 35886 ft | 467 kts | 243° |
| 2026-04-22 12:41 | -1.03605 | 117.36374 | 35883 ft | 467 kts | 243° |
| 2026-04-22 12:42 | -1.06484 | 117.30555 | 35877 ft | 467 kts | 242° |
| 2026-04-22 12:42 | -1.09371 | 117.24733 | 35883 ft | 468 kts | 242° |
| 2026-04-22 12:43 | -1.12258 | 117.18908 | 35880 ft | 468 kts | 243° |
| 2026-04-22 12:43 | -1.15143 | 117.13081 | 35883 ft | 467 kts | 242° |
| 2026-04-22 12:44 | -1.18021 | 117.07265 | 35885 ft | 467 kts | 242° |
| 2026-04-22 12:44 | -1.20891 | 117.01454 | 35885 ft | 466 kts | 242° |
| 2026-04-22 12:45 | -1.23761 | 116.95649 | 35880 ft | 466 kts | 243° |
| 2026-04-22 12:45 | -1.26039 | 116.89591 | 35881 ft | 467 kts | 251° |
| 2026-04-22 12:46 | -1.28059 | 116.83426 | 35889 ft | 466 kts | 251° |
| 2026-04-22 12:46 | -1.30066 | 116.77273 | 35883 ft | 466 kts | 251° |
| 2026-04-22 12:47 | -1.32068 | 116.71170 | 35879 ft | 465 kts | 251° |
| 2026-04-22 12:47 | -1.34092 | 116.65030 | 35881 ft | 465 kts | 251° |
| 2026-04-22 12:48 | -1.36104 | 116.58890 | 35889 ft | 465 kts | 251° |
| 2026-04-22 12:48 | -1.38116 | 116.52748 | 35883 ft | 465 kts | 251° |
| 2026-04-22 12:49 | -1.40134 | 116.46598 | 35883 ft | 466 kts | 251° |
| 2026-04-22 12:49 | -1.42156 | 116.40438 | 35880 ft | 467 kts | 251° |
| 2026-04-22 12:50 | -1.44176 | 116.34277 | 35891 ft | 467 kts | 251° |
| 2026-04-22 12:50 | -1.46205 | 116.28104 | 35891 ft | 467 kts | 251° |
| 2026-04-22 12:51 | -1.48227 | 116.21936 | 35897 ft | 468 kts | 251° |
| 2026-04-22 12:51 | -1.50249 | 116.15751 | 35890 ft | 468 kts | 251° |
| 2026-04-22 12:52 | -1.52281 | 116.09555 | 35906 ft | 469 kts | 251° |
| 2026-04-22 12:52 | -1.54314 | 116.03359 | 35906 ft | 469 kts | 251° |
| 2026-04-22 12:53 | -1.56347 | 115.97158 | 35924 ft | 469 kts | 251° |
| 2026-04-22 12:53 | -1.58377 | 115.90962 | 35926 ft | 470 kts | 251° |
| 2026-04-22 12:54 | -1.60412 | 115.84751 | 35918 ft | 470 kts | 251° |
| 2026-04-22 12:54 | -1.62449 | 115.78543 | 35922 ft | 470 kts | 251° |
| 2026-04-22 12:55 | -1.64487 | 115.72334 | 35925 ft | 470 kts | 251° |
| 2026-04-22 12:55 | -1.66504 | 115.66162 | 35925 ft | 470 kts | 251° |
| 2026-04-22 12:56 | -1.68542 | 115.59946 | 35924 ft | 470 kts | 251° |
| 2026-04-22 12:56 | -1.70579 | 115.53734 | 35923 ft | 470 kts | 251° |
| 2026-04-22 12:57 | -1.72618 | 115.47523 | 35920 ft | 470 kts | 251° |
| 2026-04-22 12:57 | -1.74656 | 115.41309 | 35926 ft | 470 kts | 251° |
| 2026-04-22 12:58 | -1.76686 | 115.35101 | 35918 ft | 470 kts | 251° |
| 2026-04-22 12:58 | -1.78745 | 115.28899 | 35916 ft | 470 kts | 250° |
| 2026-04-22 12:59 | -1.80878 | 115.22719 | 35913 ft | 471 kts | 250° |
| 2026-04-22 12:59 | -1.83035 | 115.16535 | 35909 ft | 471 kts | 250° |
| 2026-04-22 13:00 | -1.85165 | 115.10351 | 35905 ft | 471 kts | 250° |
| 2026-04-22 13:00 | -1.87287 | 115.04153 | 35908 ft | 471 kts | 250° |
| 2026-04-22 13:01 | -1.89400 | 114.97955 | 35907 ft | 471 kts | 250° |
| 2026-04-22 13:01 | -1.91515 | 114.91746 | 35908 ft | 472 kts | 250° |
| 2026-04-22 13:02 | -1.93647 | 114.85537 | 35902 ft | 472 kts | 250° |
| 2026-04-22 13:02 | -1.95785 | 114.79328 | 35905 ft | 472 kts | 250° |
| 2026-04-22 13:03 | -1.97915 | 114.73111 | 35902 ft | 473 kts | 250° |
| 2026-04-22 13:03 | -2.00036 | 114.66893 | 35902 ft | 473 kts | 250° |
| 2026-04-22 13:04 | -2.02162 | 114.60674 | 35911 ft | 473 kts | 250° |
| 2026-04-22 13:04 | -2.04297 | 114.54459 | 35909 ft | 473 kts | 250° |
| 2026-04-22 13:05 | -2.06424 | 114.48238 | 35910 ft | 473 kts | 250° |
| 2026-04-22 13:05 | -2.08545 | 114.42021 | 35910 ft | 473 kts | 250° |
| 2026-04-22 13:06 | -2.10666 | 114.35801 | 35905 ft | 473 kts | 250° |
| 2026-04-22 13:06 | -2.12796 | 114.29573 | 35907 ft | 473 kts | 250° |
| 2026-04-22 13:07 | -2.14916 | 114.23396 | 35907 ft | 473 kts | 250° |
| 2026-04-22 13:07 | -2.17078 | 114.17179 | 35903 ft | 473 kts | 250° |
| 2026-04-22 13:08 | -2.19253 | 114.10969 | 35910 ft | 473 kts | 250° |
| 2026-04-22 13:08 | -2.21430 | 114.04757 | 35910 ft | 473 kts | 250° |
| 2026-04-22 13:09 | -2.23596 | 113.98542 | 35915 ft | 473 kts | 250° |
| 2026-04-22 13:09 | -2.26064 | 113.92464 | 35911 ft | 472 kts | 243° |
| 2026-04-22 13:10 | -2.28927 | 113.86547 | 35910 ft | 472 kts | 243° |
| 2026-04-22 13:10 | -2.31779 | 113.80633 | 35903 ft | 472 kts | 243° |
| 2026-04-22 13:11 | -2.34632 | 113.74716 | 35909 ft | 472 kts | 243° |
| 2026-04-22 13:11 | -2.37491 | 113.68803 | 35905 ft | 473 kts | 243° |
| 2026-04-22 13:12 | -2.40357 | 113.62886 | 35910 ft | 473 kts | 243° |
| 2026-04-22 13:12 | -2.43220 | 113.56962 | 35911 ft | 473 kts | 243° |
| 2026-04-22 13:13 | -2.46073 | 113.51036 | 35908 ft | 473 kts | 244° |
| 2026-04-22 13:13 | -2.48936 | 113.45105 | 35905 ft | 474 kts | 243° |
| 2026-04-22 13:14 | -2.51800 | 113.39170 | 35904 ft | 474 kts | 243° |
| 2026-04-22 13:14 | -2.54671 | 113.33223 | 35908 ft | 475 kts | 243° |
| 2026-04-22 13:15 | -2.57532 | 113.27321 | 35909 ft | 475 kts | 243° |
| 2026-04-22 13:15 | -2.60425 | 113.21334 | 35914 ft | 475 kts | 243° |
| 2026-04-22 13:16 | -2.63276 | 113.15422 | 35911 ft | 475 kts | 243° |
| 2026-04-22 13:16 | -2.66149 | 113.09469 | 35909 ft | 475 kts | 243° |
| 2026-04-22 13:17 | -2.69017 | 113.03528 | 35935 ft | 473 kts | 244° |
| 2026-04-22 13:17 | -2.71892 | 112.97567 | 35931 ft | 472 kts | 243° |
| 2026-04-22 13:18 | -2.74727 | 112.91701 | 35934 ft | 471 kts | 243° |
| 2026-04-22 13:18 | -2.77573 | 112.85800 | 35931 ft | 471 kts | 244° |
| 2026-04-22 13:19 | -2.80410 | 112.79897 | 35923 ft | 470 kts | 244° |
| 2026-04-22 13:19 | -2.83248 | 112.74003 | 35923 ft | 470 kts | 244° |
| 2026-04-22 13:20 | -2.86081 | 112.68111 | 35928 ft | 470 kts | 244° |
| 2026-04-22 13:20 | -2.88915 | 112.62224 | 35927 ft | 470 kts | 244° |
| 2026-04-22 13:21 | -2.91752 | 112.56339 | 35924 ft | 469 kts | 244° |
| 2026-04-22 13:21 | -2.94587 | 112.50458 | 35922 ft | 469 kts | 244° |
| 2026-04-22 13:22 | -2.97428 | 112.44577 | 35916 ft | 469 kts | 244° |
| 2026-04-22 13:22 | -3.00264 | 112.38692 | 35920 ft | 470 kts | 244° |
| 2026-04-22 13:23 | -3.03092 | 112.32808 | 35924 ft | 470 kts | 244° |
| 2026-04-22 13:23 | -3.05448 | 112.27908 | 35926 ft | 470 kts | 244° |
| 2026-04-22 13:24 | -3.08282 | 112.22020 | 35919 ft | 470 kts | 244° |
| 2026-04-22 13:24 | -3.11573 | 112.15175 | 35922 ft | 470 kts | 244° |
| 2026-04-22 13:25 | -3.14399 | 112.09285 | 35917 ft | 470 kts | 244° |
| 2026-04-22 13:25 | -3.17237 | 112.03390 | 35915 ft | 470 kts | 244° |
| 2026-04-22 13:26 | -3.19614 | 111.98452 | 35914 ft | 470 kts | 244° |
| 2026-04-22 13:26 | -3.22448 | 111.92557 | 35915 ft | 470 kts | 244° |
| 2026-04-22 13:27 | -3.25288 | 111.86657 | 35914 ft | 470 kts | 244° |
| 2026-04-22 13:27 | -3.28122 | 111.80764 | 35915 ft | 470 kts | 244° |
| 2026-04-22 13:28 | -3.30956 | 111.74860 | 35915 ft | 470 kts | 244° |
| 2026-04-22 13:28 | -3.33790 | 111.68964 | 35914 ft | 470 kts | 244° |
| 2026-04-22 13:29 | -3.36632 | 111.63065 | 35912 ft | 470 kts | 244° |
| 2026-04-22 13:29 | -3.39451 | 111.57208 | 35912 ft | 470 kts | 244° |
| 2026-04-22 13:30 | -3.42289 | 111.51310 | 35918 ft | 470 kts | 244° |
| 2026-04-22 13:30 | -3.45124 | 111.45416 | 35915 ft | 470 kts | 244° |
| 2026-04-22 13:31 | -3.47955 | 111.39514 | 35912 ft | 470 kts | 244° |
| 2026-04-22 13:31 | -3.50788 | 111.33608 | 35920 ft | 470 kts | 244° |
| 2026-04-22 13:32 | -3.53617 | 111.27702 | 35917 ft | 470 kts | 244° |
| 2026-04-22 13:32 | -3.56447 | 111.21800 | 35913 ft | 470 kts | 244° |
| 2026-04-22 13:33 | -3.59273 | 111.15894 | 35914 ft | 471 kts | 244° |
| 2026-04-22 13:33 | -3.62117 | 111.09986 | 35908 ft | 471 kts | 244° |
| 2026-04-22 13:34 | -3.64959 | 111.04078 | 35903 ft | 472 kts | 244° |
| 2026-04-22 13:34 | -3.67797 | 110.98152 | 35903 ft | 472 kts | 244° |
| 2026-04-22 13:35 | -3.70635 | 110.92229 | 35900 ft | 472 kts | 244° |
| 2026-04-22 13:35 | -3.73472 | 110.86301 | 35903 ft | 472 kts | 244° |
| 2026-04-22 13:36 | -3.76308 | 110.80373 | 35902 ft | 472 kts | 244° |
| 2026-04-22 13:36 | -3.79158 | 110.74450 | 35900 ft | 472 kts | 244° |
| 2026-04-22 13:37 | -3.82003 | 110.68523 | 35902 ft | 472 kts | 244° |
| 2026-04-22 13:37 | -3.84840 | 110.62594 | 35899 ft | 472 kts | 244° |
| 2026-04-22 13:38 | -3.87674 | 110.56657 | 35904 ft | 472 kts | 244° |
| 2026-04-22 13:38 | -3.91909 | 110.47800 | 35905 ft | 472 kts | 244° |
| 2026-04-22 13:39 | -3.94749 | 110.41875 | 35907 ft | 472 kts | 244° |
| 2026-04-22 13:39 | -3.97579 | 110.35960 | 35917 ft | 471 kts | 244° |
| 2026-04-22 13:40 | -4.00406 | 110.30049 | 35911 ft | 470 kts | 244° |
| 2026-04-22 13:40 | -4.03232 | 110.24145 | 35912 ft | 470 kts | 244° |
| 2026-04-22 13:41 | -4.06047 | 110.18244 | 35904 ft | 470 kts | 244° |
| 2026-04-22 13:41 | -4.08865 | 110.12346 | 35909 ft | 469 kts | 244° |
| 2026-04-22 13:42 | -4.11688 | 110.06450 | 35911 ft | 469 kts | 244° |
| 2026-04-22 13:42 | -4.14506 | 110.00562 | 35909 ft | 469 kts | 244° |
| 2026-04-22 13:43 | -4.17317 | 109.94675 | 35910 ft | 468 kts | 244° |
| 2026-04-22 13:43 | -4.20127 | 109.88784 | 35907 ft | 468 kts | 244° |
| 2026-04-22 13:44 | -4.22936 | 109.82904 | 35900 ft | 468 kts | 244° |
| 2026-04-22 13:44 | -4.25747 | 109.77019 | 35898 ft | 468 kts | 244° |
| 2026-04-22 13:45 | -4.28553 | 109.71133 | 35899 ft | 468 kts | 244° |
| 2026-04-22 13:45 | -4.31343 | 109.65292 | 35898 ft | 468 kts | 244° |
| 2026-04-22 13:46 | -4.34143 | 109.59410 | 35900 ft | 467 kts | 244° |
| 2026-04-22 13:46 | -4.36938 | 109.53538 | 35902 ft | 467 kts | 244° |
| 2026-04-22 13:47 | -4.39740 | 109.47668 | 35899 ft | 467 kts | 244° |
| 2026-04-22 13:47 | -4.42540 | 109.41802 | 35896 ft | 467 kts | 244° |
| 2026-04-22 13:48 | -4.45341 | 109.35929 | 35890 ft | 467 kts | 244° |
| 2026-04-22 13:48 | -4.48144 | 109.30051 | 35890 ft | 467 kts | 244° |
| 2026-04-22 13:49 | -4.50938 | 109.24176 | 35889 ft | 467 kts | 244° |
| 2026-04-22 13:49 | -4.53739 | 109.18294 | 35890 ft | 467 kts | 244° |
| 2026-04-22 13:50 | -4.56536 | 109.12413 | 35890 ft | 468 kts | 244° |
| 2026-04-22 13:50 | -4.59325 | 109.06524 | 35893 ft | 468 kts | 244° |
| 2026-04-22 13:51 | -4.62123 | 109.00637 | 35890 ft | 468 kts | 244° |
| 2026-04-22 13:51 | -4.64930 | 108.94760 | 35889 ft | 468 kts | 244° |
| 2026-04-22 13:52 | -4.67733 | 108.88873 | 35893 ft | 468 kts | 244° |
| 2026-04-22 13:52 | -4.70874 | 108.83174 | 35894 ft | 468 kts | 232° |
| 2026-04-22 13:53 | -4.75550 | 108.78687 | 35893 ft | 467 kts | 213° |
| 2026-04-22 13:53 | -4.81004 | 108.75137 | 35891 ft | 467 kts | 213° |
| 2026-04-22 13:54 | -4.86448 | 108.71572 | 35890 ft | 468 kts | 213° |
| 2026-04-22 13:54 | -4.91900 | 108.68002 | 35892 ft | 468 kts | 213° |
| 2026-04-22 13:55 | -4.97351 | 108.64440 | 35890 ft | 468 kts | 213° |
| 2026-04-22 13:55 | -5.02807 | 108.60874 | 35892 ft | 468 kts | 213° |
| 2026-04-22 13:56 | -5.08258 | 108.57300 | 35896 ft | 468 kts | 213° |
| 2026-04-22 13:56 | -5.13712 | 108.53732 | 35899 ft | 468 kts | 213° |
| 2026-04-22 13:57 | -5.19168 | 108.50165 | 35899 ft | 468 kts | 213° |
| 2026-04-22 13:57 | -5.24617 | 108.46600 | 35900 ft | 468 kts | 213° |
| 2026-04-22 13:58 | -5.30076 | 108.43028 | 35904 ft | 468 kts | 213° |
| 2026-04-22 13:58 | -5.35496 | 108.39491 | 35892 ft | 468 kts | 213° |
| 2026-04-22 13:59 | -5.40959 | 108.35916 | 35891 ft | 469 kts | 213° |
| 2026-04-22 13:59 | -5.46420 | 108.32338 | 35894 ft | 469 kts | 213° |
| 2026-04-22 14:00 | -5.51879 | 108.28760 | 35898 ft | 469 kts | 213° |
| 2026-04-22 14:00 | -5.57338 | 108.25178 | 35902 ft | 469 kts | 213° |
| 2026-04-22 14:01 | -5.62737 | 108.21504 | 35901 ft | 469 kts | 214° |
| 2026-04-22 14:01 | -5.68096 | 108.17782 | 35834 ft | 469 kts | 214° |
| 2026-04-22 14:02 | -5.70783 | 108.15923 | 35596 ft | 469 kts | 214° |
| 2026-04-22 14:02 | -5.73481 | 108.14069 | 35359 ft | 469 kts | 214° |
| 2026-04-22 14:02 | -5.76177 | 108.12227 | 35127 ft | 470 kts | 214° |
| 2026-04-22 14:02 | -5.78881 | 108.10382 | 34900 ft | 470 kts | 214° |
| 2026-04-22 14:03 | -5.81577 | 108.08544 | 34670 ft | 466 kts | 215° |
| 2026-04-22 14:03 | -5.84272 | 108.06706 | 34445 ft | 469 kts | 215° |
| 2026-04-22 14:03 | -5.86957 | 108.04872 | 34213 ft | 464 kts | 215° |
| 2026-04-22 14:03 | -5.89592 | 108.03013 | 33988 ft | 462 kts | 220° |
| 2026-04-22 14:04 | -5.91919 | 108.00809 | 33398 ft | 461 kts | 230° |
| 2026-04-22 14:04 | -5.93810 | 107.98172 | 32249 ft | 469 kts | 242° |
| 2026-04-22 14:04 | -5.95148 | 107.95179 | 31257 ft | 473 kts | 252° |
| 2026-04-22 14:04 | -5.95924 | 107.91959 | 30376 ft | 475 kts | 263° |
| 2026-04-22 14:05 | -5.96130 | 107.88674 | 29745 ft | 470 kts | 270° |
| 2026-04-22 14:05 | -5.96158 | 107.85401 | 29030 ft | 466 kts | 270° |
| 2026-04-22 14:05 | -5.96177 | 107.78987 | 27740 ft | 458 kts | 271° |
| 2026-04-22 14:06 | -5.96172 | 107.75784 | 27432 ft | 447 kts | 271° |
| 2026-04-22 14:06 | -5.96164 | 107.72683 | 26915 ft | 441 kts | 271° |
| 2026-04-22 14:06 | -5.96156 | 107.69655 | 26389 ft | 437 kts | 271° |
| 2026-04-22 14:06 | -5.96151 | 107.66617 | 25851 ft | 433 kts | 271° |
| 2026-04-22 14:07 | -5.96150 | 107.63606 | 25308 ft | 430 kts | 271° |
| 2026-04-22 14:07 | -5.96150 | 107.60616 | 24770 ft | 427 kts | 270° |
| 2026-04-22 14:07 | -5.96152 | 107.57649 | 24226 ft | 423 kts | 270° |
| 2026-04-22 14:07 | -5.96153 | 107.54702 | 23734 ft | 420 kts | 270° |
| 2026-04-22 14:08 | -5.96153 | 107.51776 | 23176 ft | 417 kts | 270° |
| 2026-04-22 14:08 | -5.96153 | 107.48876 | 22605 ft | 414 kts | 270° |
| 2026-04-22 14:08 | -5.96155 | 107.45997 | 22074 ft | 410 kts | 270° |
| 2026-04-22 14:08 | -5.96157 | 107.43141 | 21562 ft | 407 kts | 270° |
| 2026-04-22 14:09 | -5.96159 | 107.40313 | 21070 ft | 403 kts | 270° |
| 2026-04-22 14:09 | -5.96160 | 107.37511 | 20594 ft | 399 kts | 270° |
| 2026-04-22 14:09 | -5.96158 | 107.34746 | 20256 ft | 392 kts | 270° |
| 2026-04-22 14:09 | -5.96158 | 107.32039 | 19982 ft | 383 kts | 270° |
| 2026-04-22 14:10 | -5.96158 | 107.29375 | 19592 ft | 379 kts | 271° |
| 2026-04-22 14:10 | -5.96156 | 107.26739 | 19182 ft | 376 kts | 270° |
| 2026-04-22 14:10 | -5.96152 | 107.24124 | 18768 ft | 373 kts | 270° |
| 2026-04-22 14:10 | -5.96148 | 107.21523 | 18374 ft | 371 kts | 271° |
| 2026-04-22 14:11 | -5.96142 | 107.18944 | 17943 ft | 368 kts | 271° |
| 2026-04-22 14:11 | -5.96135 | 107.16382 | 17491 ft | 366 kts | 271° |
| 2026-04-22 14:11 | -5.96127 | 107.13831 | 17048 ft | 363 kts | 270° |
| 2026-04-22 14:11 | -5.96123 | 107.11307 | 16615 ft | 361 kts | 270° |
| 2026-04-22 14:12 | -5.96120 | 107.08794 | 16191 ft | 358 kts | 270° |
| 2026-04-22 14:12 | -5.96115 | 107.06301 | 15778 ft | 356 kts | 271° |
| 2026-04-22 14:12 | -5.96107 | 107.03820 | 15373 ft | 354 kts | 270° |
| 2026-04-22 14:12 | -5.96101 | 107.01357 | 14973 ft | 352 kts | 271° |
| 2026-04-22 14:13 | -5.96098 | 106.99733 | 14715 ft | 350 kts | 270° |
| 2026-04-22 14:13 | -5.96093 | 106.97297 | 14324 ft | 348 kts | 270° |
| 2026-04-22 14:13 | -5.96088 | 106.94871 | 13938 ft | 346 kts | 271° |
| 2026-04-22 14:13 | -5.96083 | 106.92460 | 13546 ft | 344 kts | 271° |
| 2026-04-22 14:14 | -5.96077 | 106.90062 | 13117 ft | 342 kts | 270° |
| 2026-04-22 14:14 | -5.96070 | 106.87678 | 12708 ft | 339 kts | 270° |
| 2026-04-22 14:14 | -5.96065 | 106.85344 | 12349 ft | 327 kts | 270° |
| 2026-04-22 14:14 | -5.96058 | 106.83125 | 12221 ft | 310 kts | 270° |
| 2026-04-22 14:15 | -5.96051 | 106.80997 | 11911 ft | 300 kts | 270° |
| 2026-04-22 14:15 | -5.96174 | 106.78924 | 11470 ft | 296 kts | 259° |
| 2026-04-22 14:15 | -5.96794 | 106.76966 | 11026 ft | 293 kts | 248° |
| 2026-04-22 14:15 | -5.97815 | 106.74479 | 10418 ft | 290 kts | 248° |
| 2026-04-22 14:16 | -5.98330 | 106.73216 | 10111 ft | 288 kts | 248° |
| 2026-04-22 14:16 | -5.99082 | 106.71363 | 9614 ft | 285 kts | 248° |
| 2026-04-22 14:16 | -5.99825 | 106.69526 | 9009 ft | 283 kts | 248° |
| 2026-04-22 14:16 | -6.00563 | 106.67702 | 8390 ft | 281 kts | 248° |
| 2026-04-22 14:17 | -6.01285 | 106.65912 | 7784 ft | 279 kts | 248° |
| 2026-04-22 14:17 | -6.02020 | 106.64092 | 7168 ft | 277 kts | 248° |
| 2026-04-22 14:17 | -6.02733 | 106.62325 | 6587 ft | 275 kts | 248° |
| 2026-04-22 14:17 | -6.03442 | 106.60570 | 6225 ft | 263 kts | 248° |
| 2026-04-22 14:18 | -6.04115 | 106.58908 | 5889 ft | 252 kts | 248° |
| 2026-04-22 14:18 | -6.04761 | 106.57312 | 5714 ft | 246 kts | 248° |
| 2026-04-22 14:18 | -6.05411 | 106.55710 | 5391 ft | 249 kts | 248° |
| 2026-04-22 14:18 | -6.06064 | 106.54094 | 5011 ft | 250 kts | 248° |
| 2026-04-22 14:19 | -6.06716 | 106.52479 | 4683 ft | 248 kts | 248° |
| 2026-04-22 14:19 | -6.07366 | 106.50869 | 4339 ft | 247 kts | 248° |
| 2026-04-22 14:19 | -6.08015 | 106.49261 | 3984 ft | 247 kts | 248° |
| 2026-04-22 14:19 | -6.08657 | 106.47669 | 3676 ft | 245 kts | 248° |
| 2026-04-22 14:20 | -6.09914 | 106.44546 | 3237 ft | 234 kts | 248° |
| 2026-04-22 14:20 | -6.10663 | 106.43126 | 3122 ft | 229 kts | 226° |
| 2026-04-22 14:20 | -6.12002 | 106.42322 | 2966 ft | 228 kts | 191° |
| 2026-04-22 14:21 | -6.15102 | 106.42660 | 2415 ft | 225 kts | 169° |
| 2026-04-22 14:21 | -6.16559 | 106.43166 | 2168 ft | 221 kts | 141° |
| 2026-04-22 14:22 | -6.17501 | 106.45907 | 2064 ft | 221 kts | 86° |
| 2026-04-22 14:22 | -6.17440 | 106.47453 | 2062 ft | 222 kts | 88° |
| 2026-04-22 14:22 | -6.16956 | 106.50476 | 2061 ft | 221 kts | 68° |
| 2026-04-22 14:23 | -6.16393 | 106.51902 | 2057 ft | 213 kts | 68° |
| 2026-04-22 14:23 | -6.15863 | 106.53242 | 2062 ft | 199 kts | 68° |
| 2026-04-22 14:23 | -6.15385 | 106.54447 | 2071 ft | 172 kts | 68° |
| 2026-04-22 14:23 | -6.14960 | 106.55514 | 1952 ft | 161 kts | 68° |
| 2026-04-22 14:24 | -6.14550 | 106.56539 | 1733 ft | 153 kts | 68° |
| 2026-04-22 14:24 | -6.14160 | 106.57521 | 1530 ft | 151 kts | 68° |
| 2026-04-22 14:24 | -6.13806 | 106.58505 | 1306 ft | 150 kts | 75° |
| 2026-04-22 14:24 | -6.13596 | 106.59523 | 1000 ft | 148 kts | 78° |
| 2026-04-22 14:25 | -6.13363 | 106.60531 | 777 ft | 148 kts | 73° |
| 2026-04-22 14:25 | -6.13041 | 106.61511 | 629 ft | 149 kts | 67° |
| 2026-04-22 14:25 | -6.12650 | 106.62470 | 409 ft | 148 kts | 66° |
| 2026-04-22 14:25 | -6.12281 | 106.63420 | 211 ft | 147 kts | 67° |
| 2026-04-22 14:26 | -6.11905 | 106.64362 | 52 ft | 138 kts | 65° |
| 2026-04-22 14:26 | -6.11558 | 106.65169 | 41 ft | 112 kts | 67° |
| 2026-04-22 14:26 | -6.11352 | 106.65740 | 34 ft | 62 kts | 67° |
| 2026-04-22 14:26 | -6.11253 | 106.65996 | 37 ft | 30 kts | 76° |
| 2026-04-22 14:27 | -6.11257 | 106.66195 | 38 ft | 21 kts | 101° |
| 2026-04-22 14:27 | -6.11316 | 106.66273 | 38 ft | 12 kts | 150° |
| 2026-04-22 14:27 | -6.11392 | 106.66299 | 38 ft | 11 kts | 185° |
| 2026-04-22 14:27 | -6.11440 | 106.66253 | 38 ft | 9 kts | 241° |
| 2026-04-22 14:28 | -6.11461 | 106.66200 | 38 ft | 8 kts | 249° |
| 2026-04-22 14:28 | -6.11478 | 106.66153 | 38 ft | 7 kts | 249° |
| 2026-04-22 14:28 | -6.11494 | 106.66113 | 38 ft | 6 kts | 249° |
| 2026-04-22 14:28 | -6.11512 | 106.66067 | 35 ft | 10 kts | 248° |
| 2026-04-22 14:29 | -6.11546 | 106.65982 | 36 ft | 15 kts | 248° |
| 2026-04-22 14:29 | -6.11588 | 106.65877 | 36 ft | 17 kts | 248° |
| 2026-04-22 14:29 | -6.11637 | 106.65756 | 38 ft | 19 kts | 248° |
| 2026-04-22 14:29 | -6.11685 | 106.65639 | 38 ft | 16 kts | 246° |
| 2026-04-22 14:30 | -6.11771 | 106.65614 | 38 ft | 14 kts | 160° |
| 2026-04-22 14:30 | -6.11853 | 106.65624 | 38 ft | 11 kts | 210° |
| 2026-04-22 14:30 | -6.11890 | 106.65563 | 36 ft | 10 kts | 248° |
| 2026-04-22 14:30 | -6.11922 | 106.65521 | 38 ft | 7 kts | 206° |
| 2026-04-22 14:31 | -6.11963 | 106.65508 | 38 ft | 6 kts | 198° |
| 2026-04-22 14:31 | -6.11978 | 106.65503 | 38 ft | 1 kts | 198° |
| 2026-04-22 14:31 | -6.11983 | 106.65501 | 38 ft | 0 kts | 198° |
| 2026-04-22 14:31 | -6.11984 | 106.65501 | 38 ft | 0 kts | 198° |
| 2026-04-22 14:32 | -6.11990 | 106.65499 | 38 ft | 1 kts | 198° |
| 2026-04-22 14:32 | -6.11992 | 106.65498 | 38 ft | 1 kts | 198° |
| 2026-04-22 14:32 | -6.11993 | 106.65498 | 38 ft | 0 kts | 198° |
| 2026-04-22 14:32 | -6.11994 | 106.65498 | 38 ft | 0 kts | 198° |
| 2026-04-22 14:33 | -6.11995 | 106.65497 | 38 ft | 0 kts | 198° |